Assinippi, Massachusetts
Current Conditions -  °F | °C
As of 9:10 PM on Wednesday 26 Nov 2014 (Local Time) from KPYM Reporting Station
Light Rain Light Rain  
Wind Chill: 34°   Ceiling: 900
Heat Index: 43°   Visibility: 4mi
Dew Point: 41°   Wind: 24mph
Humidity: 93%   Direction: 30°NNE
Pressure: 29.61"   Gusts: 38mph
Location:  42.1315°N, 70.8467°W
Report Text: KPYM 270210Z AUTO 03021G33KT 4SM -RA BR BKN009 OVC016 06/05 A2961 RMK AO2 PK WND 04034/0156 P0001 T00610050
Loading
Personal Weather Stations






























Interactive Weather Map New forecast layout! Learn more

10-Day Weather Forecast

Advertisements
Track Severe Weather on mobile